Ambulong, Philippines

3:55 PM PHT on September 03, 2014 (GMT +0800)
UP Los Banos | Change Station
CLOSE
Current Station
Personal Weather Station
Location: Los Baños, CALABARZON
Elevation: 860 ft
Nearby Weather Stations

Elev 860 ft 14.17 °N, 121.24 °E | Updated 35 minutes ago

Overcast
Overcast
83.9 °F
Feels Like 93 °F
N
0.0
Wind Variable Wind from SE
Gusts 5.0 mph

Today
High -- | Low -- °F
--% Chance of Precip.
Yesterday
High -- | Low -- °F
Precip. -- in
5:44 AM 6:06 PM
First Quarter, 60% visible
Pressure 29.71 in
Visibility 5.6 miles
Clouds Scattered Clouds 2300 ft
Overcast 8000 ft
Heat Index 93 °F
Dew Point 76 °F
Humidity 78%
Rainfall 0.24 in
Snow Depth Not available.
UV 3 out of 12
Pollen Not available.
Air Quality Not available.
Flu Activity Not available.
METAR RPLL 030700Z 24006KT 200V260 9000 -RA SCT023 OVC080 27/27 Q1006 NOSIG RMK A2971

More Conditions Fewer Conditions

Pressure 29.71 in
Visibility 5.6 miles
Clouds Scattered Clouds 2300 ft
Overcast 8000 ft
Heat Index 93 °F
Dew Point 76 °F
Humidity 78%
Rainfall 0.24 in
Snow Depth Not available.
UV 3 out of 12
Pollen Not available.
Air Quality Not available.
Flu Activity Not available.
METAR RPLL 030700Z 24006KT 200V260 9000 -RA SCT023 OVC080 27/27 Q1006 NOSIG RMK A2971

More Conditions Fewer Conditions

10-Day Weather Forecast

Almanac

Astronomy

Sep. 03, 2014 Rise Set
Actual Time 5:44 AM PHT 6:06 PM PHT
Civil Twilight 5:22 AM PHT 6:27 PM PHT
Nautical Twilight 4:57 AM PHT 6:52 PM PHT
Astronomical Twilight 4:32 AM PHT 7:18 PM PHT
Moon 12:44 PM PHT No Moon Set
Length of Visible Light 13h 05m
Length of Day
12h 22m
Tomorrow will be 0m 46s shorter.
First Quarter, 60% of the Moon is Illuminated
Today
First Quarter
Sep 8
Full
Sep 15
Last Quarter
Sep 24
New
Oct 1
First Quarter

Yesterday's Extremes

Country Highs Country Lows

Community

WunderPhotos

Upload Photos

1,749,899 photos uploaded!

Nearby

Snow Depth

Not available.

Earthquake Activity

City Distance Mag. Time & Date
No recent earthquake activity has been reported nearby.
Minimum magnitude displayed is 2.5.

Coastal Water Temperatures

Place Temperature
No Stations Reporting

Nearby Weather Stations